createdAt,value
2019-03-25T00:04:15.561Z,83.97
2019-03-25T00:09:19.157Z,77.00
2019-03-25T00:14:22.892Z,74.10
2019-03-25T00:19:26.565Z,78.13
2019-03-25T00:24:38.299Z,72.63
2019-03-25T00:29:35.408Z,74.03
2019-03-25T00:34:39.322Z,76.53
2019-03-25T00:39:42.907Z,77.00
2019-03-25T00:44:46.570Z,76.80
2019-03-25T00:49:50.169Z,73.33
2019-03-25T00:54:53.766Z,72.57
2019-03-25T00:59:57.363Z,70.10
2019-03-25T01:05:00.960Z,75.57
2019-03-25T01:10:07.842Z,75.33
2019-03-25T01:15:11.579Z,79.27
2019-03-25T01:20:15.626Z,71.70
2019-03-25T01:25:19.744Z,69.47
2019-03-25T01:30:23.483Z,74.77
2019-03-25T01:35:27.082Z,75.17
2019-03-25T01:40:30.678Z,70.87
2019-03-25T01:45:34.269Z,74.67
2019-03-25T01:50:37.862Z,74.00
2019-03-25T01:55:41.787Z,78.27
2019-03-25T02:00:45.449Z,75.37
2019-03-25T02:05:49.044Z,73.37
2019-03-25T02:10:52.954Z,71.27
2019-03-25T02:15:56.545Z,70.83
2019-03-25T02:21:00.392Z,68.57
2019-03-25T02:26:04.061Z,68.10
2019-03-25T02:31:07.740Z,64.37
2019-03-25T02:36:11.435Z,67.37
2019-03-25T02:41:15.041Z,67.40
2019-03-25T02:46:19.069Z,63.77
2019-03-25T02:51:22.687Z,63.90
2019-03-25T02:56:26.277Z,63.00
2019-03-25T03:01:30.209Z,58.20
2019-03-25T03:06:34.130Z,55.70
2019-03-25T03:11:37.726Z,57.10
2019-03-25T03:16:41.783Z,59.47
2019-03-25T03:21:45.843Z,51.43
2019-03-25T03:26:49.452Z,54.17
2019-03-25T03:31:53.091Z,51.07
2019-03-25T03:36:56.731Z,56.93
2019-03-25T03:42:00.769Z,48.00
2019-03-25T03:47:04.449Z,45.30
2019-03-25T03:52:09.743Z,48.87
2019-03-25T03:57:14.651Z,43.43
2019-03-25T04:02:18.250Z,35.33
2019-03-25T04:07:21.916Z,36.20
2019-03-25T04:12:25.654Z,38.27
2019-03-25T04:17:29.704Z,38.83
2019-03-25T04:22:33.398Z,37.60
2019-03-25T04:27:37.440Z,33.70
2019-03-25T04:32:41.110Z,32.57
2019-03-25T04:37:44.779Z,32.10
2019-03-25T04:42:48.528Z,27.63
2019-03-25T04:47:52.622Z,21.40
2019-03-25T04:52:56.201Z,21.50
2019-03-25T04:58:00.200Z,22.87
2019-03-25T05:03:04.232Z,20.87
2019-03-25T05:08:07.819Z,22.73
2019-03-25T05:13:11.518Z,21.77
2019-03-25T05:18:15.115Z,23.63
2019-03-25T05:23:18.768Z,19.93
2019-03-25T05:28:22.369Z,22.77
2019-03-25T05:33:25.970Z,27.60
2019-03-25T05:38:29.636Z,20.60
2019-03-25T05:43:33.592Z,22.03
2019-03-25T05:48:37.266Z,21.77
2019-03-25T05:53:40.941Z,21.40
2019-03-25T05:58:44.508Z,19.80
2019-03-25T06:03:49.887Z,24.13
2019-03-25T06:08:53.474Z,24.67
2019-03-25T06:13:57.562Z,27.97
2019-03-25T06:19:01.539Z,21.63
2019-03-25T06:24:05.189Z,27.17
2019-03-25T06:29:08.846Z,24.53
2019-03-25T06:34:12.781Z,25.83
2019-03-25T06:39:16.365Z,24.43
2019-03-25T06:44:20.351Z,22.27
2019-03-25T06:49:24.381Z,23.03
2019-03-25T06:54:28.386Z,27.60
2019-03-25T06:59:31.972Z,19.97
2019-03-25T07:04:35.648Z,25.67
2019-03-25T07:09:39.703Z,22.80
2019-03-25T07:14:43.364Z,23.80
2019-03-25T07:19:47.102Z,21.13
2019-03-25T07:24:50.701Z,22.50
2019-03-25T07:29:54.294Z,23.33
2019-03-25T07:34:58.186Z,20.60
2019-03-25T07:40:01.882Z,19.87
2019-03-25T07:45:09.570Z,22.83
2019-03-25T07:50:13.999Z,18.63
2019-03-25T07:55:17.750Z,20.43
2019-03-25T08:00:22.043Z,23.53
2019-03-25T08:05:25.997Z,16.93
2019-03-25T08:10:32.730Z,22.77
2019-03-25T08:15:36.820Z,22.83
2019-03-25T08:20:40.376Z,18.93
2019-03-25T08:25:43.962Z,20.07
2019-03-25T08:30:47.969Z,20.57
2019-03-25T08:35:51.575Z,18.33
2019-03-25T08:40:55.615Z,20.20
2019-03-25T08:45:59.289Z,22.13
2019-03-25T08:51:02.893Z,20.43
2019-03-25T08:56:07.026Z,20.77
2019-03-25T09:01:10.691Z,22.47
2019-03-25T09:06:14.289Z,19.90
2019-03-25T09:11:18.181Z,18.80
2019-03-25T09:16:22.066Z,21.10
2019-03-25T09:21:25.739Z,14.07
2019-03-25T09:26:29.391Z,14.10
2019-03-25T09:31:37.052Z,13.77
2019-03-25T09:36:38.733Z,15.53
2019-03-25T09:41:42.673Z,16.00
2019-03-25T09:46:46.421Z,12.83
2019-03-25T09:51:52.723Z,10.90
2019-03-25T09:56:55.789Z,13.17
2019-03-25T10:01:59.743Z,13.77
2019-03-25T10:07:03.691Z,15.27
2019-03-25T10:12:07.355Z,11.83
2019-03-25T10:17:11.384Z,13.13
2019-03-25T10:22:14.971Z,13.67
2019-03-25T10:27:18.603Z,13.37
2019-03-25T10:32:22.668Z,14.30
2019-03-25T10:37:26.258Z,13.13
2019-03-25T10:42:30.230Z,15.97
2019-03-25T10:47:33.961Z,11.87
2019-03-25T10:52:37.785Z,12.83
2019-03-25T10:57:41.524Z,10.80
2019-03-25T11:02:45.192Z,10.03
2019-03-25T11:07:49.374Z,10.33
2019-03-25T11:12:53.467Z,16.43
2019-03-25T11:17:57.062Z,11.47
2019-03-25T11:23:00.733Z,10.37
2019-03-25T11:28:04.654Z,7.90
2019-03-25T11:33:08.324Z,10.40
2019-03-25T11:38:11.922Z,11.00
2019-03-25T11:43:15.687Z,12.03
2019-03-25T11:48:19.533Z,11.87
2019-03-25T11:53:23.716Z,16.67
2019-03-25T11:58:27.842Z,12.97
2019-03-25T12:03:31.527Z,11.23
2019-03-25T12:08:35.115Z,11.60
2019-03-25T12:13:38.779Z,10.27
2019-03-25T12:18:42.718Z,9.60
2019-03-25T12:23:46.302Z,10.80
2019-03-25T12:28:49.902Z,12.03
2019-03-25T12:34:13.519Z,8.50
2019-03-25T12:39:17.402Z,9.40
2019-03-25T12:44:21.008Z,8.47
2019-03-25T12:49:24.669Z,12.50
2019-03-25T12:54:28.751Z,12.97
2019-03-25T12:59:40.713Z,9.70
2019-03-25T13:04:37.682Z,11.13
2019-03-25T13:09:41.788Z,9.43
2019-03-25T13:14:45.397Z,12.83
2019-03-25T13:19:48.989Z,10.10
2019-03-25T13:24:52.589Z,9.60
2019-03-25T13:29:56.189Z,10.33
2019-03-25T13:35:00.096Z,9.53
2019-03-25T13:40:05.610Z,8.90
2019-03-25T13:45:09.352Z,13.10
2019-03-25T13:50:13.190Z,11.70
2019-03-25T13:55:16.776Z,9.50
2019-03-25T14:00:23.452Z,13.17
2019-03-25T14:05:27.467Z,10.43
2019-03-25T14:10:31.607Z,12.57
2019-03-25T14:15:35.421Z,14.13
2019-03-25T14:20:39.320Z,9.73
2019-03-25T14:25:42.920Z,14.47
2019-03-25T14:30:46.524Z,10.13
2019-03-25T14:35:50.176Z,10.43
2019-03-25T14:40:53.771Z,10.03
2019-03-25T14:45:57.370Z,10.53
2019-03-25T14:51:00.959Z,11.50
2019-03-25T14:56:04.984Z,11.57
2019-03-25T15:01:08.656Z,10.77
2019-03-25T15:06:12.639Z,11.00
2019-03-25T15:11:16.489Z,15.10
2019-03-25T15:16:20.080Z,12.03
2019-03-25T15:21:23.766Z,9.63
2019-03-25T15:26:27.609Z,9.17
2019-03-25T15:31:31.352Z,9.53
2019-03-25T15:36:34.953Z,11.63
2019-03-25T15:41:38.624Z,10.27
2019-03-25T15:46:42.371Z,12.30
2019-03-25T15:51:46.053Z,11.50
2019-03-25T15:56:49.779Z,9.83
2019-03-25T16:01:53.520Z,14.20
2019-03-25T16:06:57.266Z,11.07
2019-03-25T16:12:01.472Z,9.47
2019-03-25T16:17:05.201Z,12.47
2019-03-25T16:22:09.254Z,11.50
2019-03-25T16:27:12.864Z,13.37
2019-03-25T16:32:16.773Z,11.73
2019-03-25T16:37:20.376Z,11.57
2019-03-25T16:42:23.961Z,9.90
2019-03-25T16:47:27.887Z,11.87
2019-03-25T16:52:31.474Z,9.37
2019-03-25T16:57:35.354Z,11.73
2019-03-25T17:02:38.943Z,14.20
2019-03-25T17:07:42.885Z,10.17
2019-03-25T17:12:46.492Z,11.53
2019-03-25T17:17:50.086Z,12.40
2019-03-25T17:22:53.686Z,9.80
2019-03-25T17:27:57.538Z,10.97
2019-03-25T17:33:01.203Z,9.30
2019-03-25T17:38:05.332Z,9.93
2019-03-25T17:43:09.093Z,9.10
2019-03-25T17:48:13.130Z,8.97
2019-03-25T17:53:16.797Z,8.93
2019-03-25T17:58:20.395Z,9.53
2019-03-25T18:03:24.081Z,11.40
2019-03-25T18:08:27.752Z,11.20
2019-03-25T18:13:31.435Z,9.77
2019-03-25T18:18:35.090Z,9.50
2019-03-25T18:23:38.688Z,10.10
2019-03-25T18:28:42.785Z,13.90
2019-03-25T18:33:46.331Z,8.53
2019-03-25T18:38:49.930Z,11.40
2019-03-25T18:43:54.031Z,10.13
2019-03-25T18:48:58.183Z,7.93
2019-03-25T18:54:01.844Z,9.37
2019-03-25T18:59:05.584Z,12.37
2019-03-25T19:04:09.618Z,10.80
2019-03-25T19:09:13.565Z,10.03
2019-03-25T19:14:17.168Z,12.37
2019-03-25T19:19:21.163Z,10.43
2019-03-25T19:24:24.795Z,11.60
2019-03-25T19:29:28.417Z,8.87
2019-03-25T19:34:31.983Z,11.40
2019-03-25T19:39:35.736Z,10.13
2019-03-25T19:44:39.316Z,8.53
2019-03-25T19:49:42.994Z,10.87
2019-03-25T19:54:46.842Z,13.30
2019-03-25T19:59:50.475Z,12.40
2019-03-25T20:04:54.133Z,16.77
2019-03-25T20:09:57.751Z,11.43
2019-03-25T20:15:01.628Z,9.03
2019-03-25T20:20:07.736Z,10.87
2019-03-25T20:25:11.570Z,10.63
2019-03-25T20:30:15.554Z,10.90
2019-03-25T20:35:19.301Z,11.53
2019-03-25T20:40:23.422Z,12.67
2019-03-25T20:45:27.128Z,9.70
2019-03-25T20:50:30.852Z,10.97
2019-03-25T20:55:34.593Z,13.50
2019-03-25T21:00:46.745Z,11.93
2019-03-25T21:05:50.530Z,12.40
2019-03-25T21:10:54.177Z,11.87
2019-03-25T21:15:58.115Z,9.30
2019-03-25T21:21:01.713Z,11.20
2019-03-25T21:26:05.413Z,9.90
2019-03-25T21:31:09.174Z,8.60
2019-03-25T21:36:13.042Z,10.30
2019-03-25T21:41:17.029Z,8.83
2019-03-25T21:46:20.787Z,7.93
2019-03-25T21:51:24.472Z,9.40
2019-03-25T21:56:28.029Z,7.23
2019-03-25T22:01:31.704Z,8.00
2019-03-25T22:06:35.299Z,7.57
2019-03-25T22:11:38.908Z,9.60
2019-03-25T22:16:42.511Z,9.27
2019-03-25T22:21:46.114Z,8.90
2019-03-25T22:26:49.717Z,23.87
2019-03-25T22:31:53.299Z,8.70
2019-03-25T22:36:56.891Z,8.00
2019-03-25T22:42:00.775Z,9.13
2019-03-25T22:47:04.457Z,7.57
2019-03-25T22:52:08.130Z,8.00
2019-03-25T22:57:11.731Z,7.70
2019-03-25T23:02:15.774Z,9.17
2019-03-25T23:07:19.865Z,11.53
2019-03-25T23:12:23.547Z,11.73
2019-03-25T23:17:27.144Z,9.67
2019-03-25T23:22:30.726Z,7.60
2019-03-25T23:27:34.373Z,9.63
2019-03-25T23:32:37.989Z,8.13
2019-03-25T23:37:41.579Z,9.07
2019-03-25T23:42:45.467Z,8.33
2019-03-25T23:47:49.064Z,10.47
2019-03-25T23:52:52.655Z,9.03
2019-03-25T23:57:56.325Z,9.23
